Arboledas, Argentina
Current Conditions -  °F | °C
As of 7:00 AM on Friday 19 Dec 2014 (Local Time) from SAEZ Reporting Station
Clear Clear  
Wind Chill: 24°   Ceiling: Unl
Heat Index: 24°   Visibility: 6mi
Dew Point: 14°   Wind: 12mph
Humidity: 53%   Direction: 320°NW
Pressure: 29.71"   Gusts: 23mph
Location:  36.49°S, 61.45°W
Report Text: SAEZ 191000Z 32010G20KT 280V360 CAVOK 24/14 Q1006
Loading
Personal Weather Stations






























Interactive Weather Map New forecast layout! Learn more

10-Day Weather Forecast

Advertisements
Track Severe Weather on mobile